AKST,Max TemperatureF,Mean TemperatureF,Min TemperatureF,Max Dew PointF,MeanDew PointF,Min DewpointF,Max Humidity, Mean Humidity, Min Humidity, Max Sea Level PressureIn, Mean Sea Level PressureIn, Min Sea Level PressureIn, Max VisibilityMiles, Mean VisibilityMiles, Min VisibilityMiles, Max Wind SpeedMPH, Mean Wind SpeedMPH, Max Gust SpeedMPH,PrecipitationIn, CloudCover, Events, WindDirDegrees
2013-1-1,39,37,35,36,34,30,0,0,0,29.24,29.09,29.04,10,8,4,45,17,56,0.61,8,Rain,141
2013-1-2,39,36,32,37,33,30,0,0,0,29.34,29.28,29.19,10,8,2,37,14,43,0.35,7,Rain-Snow,135
2013-1-3,37,33,28,34,31,27,0,0,0,29.54,29.41,29.33,10,9,5,22,6,26,0.11,5,Rain-Snow,137
2013-1-4,36,33,29,34,32,29,0,0,0,29.73,29.65,29.55,10,10,6,23,7,26,0.08,7,Rain-Snow,123
2013-1-5,37,35,33,36,33,30,0,0,0,29.57,29.32,29.10,10,9,4,17,7,20,0.16,7,Rain-Snow,136
2013-1-6,37,34,30,36,33,28,0,0,0,29.28,28.99,28.74,10,8,1,29,11,35,0.21,8,Rain-Snow,103
2013-1-7,37,35,33,36,32,27,0,0,0,29.39,29.03,28.75,10,8,1,23,12,31,0.33,8,Rain-Snow,301
2013-1-8,34,32,30,27,21,16,0,0,0,30.04,29.73,29.38,10,10,10,33,19,45,0.00,3,,295
2013-1-9,38,31,23,34,25,12,0,0,0,30.09,29.97,29.83,10,10,10,15,4,16,T,6,,219
2013-1-10,38,31,24,36,30,24,0,0,0,30.09,29.95,29.71,10,9,1,31,7,36,0.23,5,Rain-Snow,113
2013-1-11,38,36,33,38,34,31,0,0,0,30.08,29.87,29.66,10,7,2,29,11,38,0.26,6,Rain-Snow,273
2013-1-12,43,39,35,39,37,34,0,0,0,30.03,29.90,29.79,10,7,0,16,6,20,0.14,8,Fog-Rain,105
2013-1-13,44,41,37,40,39,37,0,0,0,29.84,29.70,29.57,10,10,9,16,9,20,0.05,8,Rain,152
2013-1-14,44,39,33,39,33,26,0,0,0,30.06,29.75,29.53,10,10,10,22,10,32,T,7,,229
2013-1-15,36,32,27,28,26,24,0,0,0,30.23,30.19,30.09,10,10,10,9,4,10,0.00,5,,279
2013-1-16,37,32,27,30,27,20,0,0,0,30.14,29.86,29.71,10,9,1,16,7,22,0.01,7,Snow,309
2013-1-17,28,23,17,18,11,5,0,0,0,29.95,29.80,29.69,10,10,10,28,10,33,0.00,3,,282
2013-1-18,37,26,15,32,20,5,0,0,0,30.06,30.02,29.97,10,10,10,21,8,28,0.00,7,,50
2013-1-19,40,38,36,39,36,32,0,0,0,29.97,29.76,29.58,10,6,1,30,19,44,1.59,8,Rain,81
2013-1-20,41,37,32,35,34,33,0,0,0,29.79,29.75,29.66,10,9,5,13,3,16,T,7,Rain,117
2013-1-21,40,37,34,40,38,32,0,0,0,29.76,29.54,29.38,10,4,1,30,16,38,1.25,8,Rain-Snow,38
2013-1-22,41,40,38,40,38,36,0,0,0,29.40,29.32,29.22,10,5,2,30,18,30,1.70,8,Rain,40
2013-1-23,41,40,38,39,38,36,0,0,0,29.23,29.13,29.06,10,6,1,30,18,40,0.67,8,Rain,20
2013-1-24,40,37,34,37,35,31,0,0,0,29.51,29.36,29.18,10,9,2,18,8,23,0.15,7,Rain-Snow,37
2013-1-25,35,30,25,30,21,7,0,0,0,29.64,29.53,29.48,10,10,10,25,10,33,0.00,3,,299
2013-1-26,26,22,17,11,7,2,0,0,0,29.90,29.77,29.66,10,10,10,21,7,26,0.00,4,,306
2013-1-27,24,20,15,12,5,-3,0,0,0,30.05,29.99,29.92,10,10,10,15,7,24,0.00,6,,300
2013-1-28,33,24,14,32,21,1,0,0,0,30.04,29.78,29.46,10,2,0,31,19,37,0.54,8,Fog-Snow,18
2013-1-29,36,35,33,36,35,32,0,0,0,29.63,29.57,29.45,5,2,0,14,7,16,0.49,8,Fog-Rain-Snow,47
2013-1-30,41,37,33,38,36,33,0,0,0,29.68,29.57,29.50,10,7,1,17,6,24,0.36,8,Rain,134
2013-1-31,37,34,30,36,34,30,0,0,0,29.83,29.78,29.70,10,9,4,18,5,22,0.03,8,Rain,343